sensor_id;sensor_type;location;lat;lon;timestamp;pressure;altitude;pressure_sealevel;temperature;humidity
7474;BME280;3778;42.572;23.426;2022-09-21T00:01:50;73086.00;;;-146.70;64.35
7474;BME280;3778;42.572;23.426;2022-09-21T00:04:17;73083.91;;;-146.70;64.54
7474;BME280;3778;42.572;23.426;2022-09-21T00:06:44;73088.06;;;-146.70;64.64
7474;BME280;3778;42.572;23.426;2022-09-21T00:09:11;73088.06;;;-146.70;64.58
7474;BME280;3778;42.572;23.426;2022-09-21T00:11:38;73088.06;;;-146.70;64.58
7474;BME280;3778;42.572;23.426;2022-09-21T00:14:12;73083.91;;;-146.70;64.43
7474;BME280;3778;42.572;23.426;2022-09-21T00:16:39;73096.34;;;-146.70;64.57
7474;BME280;3778;42.572;23.426;2022-09-21T00:19:07;73098.44;;;-146.70;65.09
7474;BME280;3778;42.572;23.426;2022-09-21T00:21:34;73100.50;;;-146.70;65.31
7474;BME280;3778;42.572;23.426;2022-09-21T00:24:02;73100.50;;;-146.70;65.38
7474;BME280;3778;42.572;23.426;2022-09-21T00:26:29;73100.50;;;-146.70;65.76
7474;BME280;3778;42.572;23.426;2022-09-21T00:28:58;73104.66;;;-146.70;65.61
7474;BME280;3778;42.572;23.426;2022-09-21T00:31:28;73102.56;;;-146.70;65.51
7474;BME280;3778;42.572;23.426;2022-09-21T00:33:56;73096.34;;;-146.70;66.04
7474;BME280;3778;42.572;23.426;2022-09-21T00:36:23;73094.28;;;-146.70;66.00
7474;BME280;3778;42.572;23.426;2022-09-21T00:38:52;73092.22;;;-146.70;66.18
7474;BME280;3778;42.572;23.426;2022-09-21T00:41:20;73096.34;;;-146.70;66.20
7474;BME280;3778;42.572;23.426;2022-09-21T00:44:06;73096.34;;;-146.70;66.43
7474;BME280;3778;42.572;23.426;2022-09-21T00:46:37;73096.34;;;-146.70;66.44
7474;BME280;3778;42.572;23.426;2022-09-21T00:49:05;73094.28;;;-146.70;66.41
7474;BME280;3778;42.572;23.426;2022-09-21T00:51:33;73088.06;;;-146.70;66.43
7474;BME280;3778;42.572;23.426;2022-09-21T00:54:02;73086.00;;;-146.70;66.41
7474;BME280;3778;42.572;23.426;2022-09-21T00:56:31;73079.78;;;-146.70;66.57
7474;BME280;3778;42.572;23.426;2022-09-21T00:58:58;73079.78;;;-146.70;66.46
7474;BME280;3778;42.572;23.426;2022-09-21T01:01:25;73073.56;;;-146.70;66.14
7474;BME280;3778;42.572;23.426;2022-09-21T01:03:53;73077.69;;;-146.70;66.08
7474;BME280;3778;42.572;23.426;2022-09-21T01:06:21;73075.63;;;-146.70;66.18
7474;BME280;3778;42.572;23.426;2022-09-21T01:08:50;73077.69;;;-146.70;66.38
7474;BME280;3778;42.572;23.426;2022-09-21T01:11:28;73071.47;;;-146.70;66.41
7474;BME280;3778;42.572;23.426;2022-09-21T01:14:09;73065.25;;;-146.70;66.51
7474;BME280;3778;42.572;23.426;2022-09-21T01:16:46;73063.19;;;-146.70;66.62
7474;BME280;3778;42.572;23.426;2022-09-21T01:19:30;73059.03;;;-146.70;66.51
7474;BME280;3778;42.572;23.426;2022-09-21T01:22:08;73067.34;;;-146.70;66.77
7474;BME280;3778;42.572;23.426;2022-09-21T01:24:49;73075.63;;;-146.70;67.06
7474;BME280;3778;42.572;23.426;2022-09-21T01:27:29;73081.84;;;-146.70;67.52
7474;BME280;3778;42.572;23.426;2022-09-21T01:30:01;73086.00;;;-146.70;67.90
7474;BME280;3778;42.572;23.426;2022-09-21T01:32:32;73083.91;;;-146.70;68.07
7474;BME280;3778;42.572;23.426;2022-09-21T01:35:02;73081.84;;;-146.70;68.13
7474;BME280;3778;42.572;23.426;2022-09-21T01:37:36;73077.69;;;-146.70;67.92
7474;BME280;3778;42.572;23.426;2022-09-21T01:40:08;73073.56;;;-146.70;67.85
7474;BME280;3778;42.572;23.426;2022-09-21T01:42:38;73067.34;;;-146.70;67.72
7474;BME280;3778;42.572;23.426;2022-09-21T01:45:10;73069.41;;;-146.70;67.78
7474;BME280;3778;42.572;23.426;2022-09-21T01:47:40;73077.69;;;-146.70;68.21
7474;BME280;3778;42.572;23.426;2022-09-21T01:50:09;73079.78;;;-146.70;68.37
7474;BME280;3778;42.572;23.426;2022-09-21T01:52:40;73083.91;;;-146.70;68.53
7474;BME280;3778;42.572;23.426;2022-09-21T01:55:11;73075.63;;;-146.70;68.31
7474;BME280;3778;42.572;23.426;2022-09-21T01:57:43;73079.78;;;-146.70;68.35
7474;BME280;3778;42.572;23.426;2022-09-21T02:00:14;73079.78;;;-146.70;68.52
7474;BME280;3778;42.572;23.426;2022-09-21T02:02:45;73083.91;;;-146.70;68.72
7474;BME280;3778;42.572;23.426;2022-09-21T02:05:17;73079.78;;;-146.70;68.86
7474;BME280;3778;42.572;23.426;2022-09-21T02:07:46;73079.78;;;-146.70;69.26
7474;BME280;3778;42.572;23.426;2022-09-21T02:10:17;73086.00;;;-146.70;69.23
7474;BME280;3778;42.572;23.426;2022-09-21T02:12:47;73090.13;;;-146.70;69.39
7474;BME280;3778;42.572;23.426;2022-09-21T02:15:21;73096.34;;;-146.70;69.58
7474;BME280;3778;42.572;23.426;2022-09-21T02:17:56;73098.44;;;-146.70;69.74
7474;BME280;3778;42.572;23.426;2022-09-21T02:20:31;73096.34;;;-146.70;69.95
7474;BME280;3778;42.572;23.426;2022-09-21T02:23:06;73102.56;;;-146.70;69.95
7474;BME280;3778;42.572;23.426;2022-09-21T02:25:42;73092.22;;;-146.70;69.82
7474;BME280;3778;42.572;23.426;2022-09-21T02:28:19;73092.22;;;-146.70;69.68
7474;BME280;3778;42.572;23.426;2022-09-21T02:30:54;73088.06;;;-146.70;69.59
7474;BME280;3778;42.572;23.426;2022-09-21T02:33:27;73079.78;;;-146.70;69.70
7474;BME280;3778;42.572;23.426;2022-09-21T02:36:02;73073.56;;;-146.70;69.88
7474;BME280;3778;42.572;23.426;2022-09-21T02:38:34;73077.69;;;-146.70;69.67
7474;BME280;3778;42.572;23.426;2022-09-21T02:41:07;73075.63;;;-146.70;69.44
7474;BME280;3778;42.572;23.426;2022-09-21T02:43:40;73086.00;;;-146.70;69.65
7474;BME280;3778;42.572;23.426;2022-09-21T02:46:14;73086.00;;;-146.70;69.99
7474;BME280;3778;42.572;23.426;2022-09-21T02:48:45;73108.78;;;-146.70;70.36
7474;BME280;3778;42.572;23.426;2022-09-21T02:51:16;73100.50;;;-146.70;70.36
7474;BME280;3778;42.572;23.426;2022-09-21T02:53:45;73092.22;;;-146.70;70.05
7474;BME280;3778;42.572;23.426;2022-09-21T02:56:14;73088.06;;;-146.70;70.04
7474;BME280;3778;42.572;23.426;2022-09-21T02:58:45;73096.34;;;-146.70;70.34
7474;BME280;3778;42.572;23.426;2022-09-21T03:01:15;73094.28;;;-146.70;70.04
7474;BME280;3778;42.572;23.426;2022-09-21T03:03:43;73094.28;;;-146.70;70.02
7474;BME280;3778;42.572;23.426;2022-09-21T03:06:09;73104.66;;;-146.70;70.07
7474;BME280;3778;42.572;23.426;2022-09-21T03:08:36;73125.38;;;-146.70;70.59
7474;BME280;3778;42.572;23.426;2022-09-21T03:11:03;73141.97;;;-146.70;71.17
7474;BME280;3778;42.572;23.426;2022-09-21T03:13:30;73160.63;;;-146.70;71.05
7474;BME280;3778;42.572;23.426;2022-09-21T03:15:59;73154.41;;;-146.70;71.39
7474;BME280;3778;42.572;23.426;2022-09-21T03:18:28;73139.88;;;-146.70;71.56
7474;BME280;3778;42.572;23.426;2022-09-21T03:20:54;73133.66;;;-146.70;71.51
7474;BME280;3778;42.572;23.426;2022-09-21T03:23:21;73129.53;;;-146.70;71.14
7474;BME280;3778;42.572;23.426;2022-09-21T03:25:48;73133.66;;;-146.70;71.01
7474;BME280;3778;42.572;23.426;2022-09-21T03:28:17;73129.53;;;-146.70;71.14
7474;BME280;3778;42.572;23.426;2022-09-21T03:30:44;73150.25;;;-146.70;71.57
7474;BME280;3778;42.572;23.426;2022-09-21T03:33:11;73154.41;;;-146.70;72.10
7474;BME280;3778;42.572;23.426;2022-09-21T03:35:39;73162.69;;;-146.70;72.20
7474;BME280;3778;42.572;23.426;2022-09-21T03:38:06;73160.63;;;-146.70;72.57
7474;BME280;3778;42.572;23.426;2022-09-21T03:40:33;73162.69;;;-146.70;72.54
7474;BME280;3778;42.572;23.426;2022-09-21T03:43:00;73164.75;;;-146.70;72.47
7474;BME280;3778;42.572;23.426;2022-09-21T03:45:27;73152.31;;;-146.70;72.17
7474;BME280;3778;42.572;23.426;2022-09-21T03:47:54;73168.91;;;-146.70;71.70
7474;BME280;3778;42.572;23.426;2022-09-21T03:50:22;73200.00;;;-146.70;71.88
7474;BME280;3778;42.572;23.426;2022-09-21T03:52:50;73202.06;;;-146.70;72.53
7474;BME280;3778;42.572;23.426;2022-09-21T03:55:17;73204.16;;;-146.70;72.42
7474;BME280;3778;42.572;23.426;2022-09-21T03:57:44;73226.94;;;-146.70;71.85
7474;BME280;3778;42.572;23.426;2022-09-21T04:00:12;73212.44;;;-146.70;72.80
7474;BME280;3778;42.572;23.426;2022-09-21T04:02:39;73202.06;;;-146.70;73.05
7474;BME280;3778;42.572;23.426;2022-09-21T04:05:07;73208.28;;;-146.70;72.95
7474;BME280;3778;42.572;23.426;2022-09-21T04:07:34;73212.44;;;-146.70;73.27
7474;BME280;3778;42.572;23.426;2022-09-21T04:10:03;73212.44;;;-146.70;73.36
7474;BME280;3778;42.572;23.426;2022-09-21T04:12:30;73220.72;;;-146.70;73.62
7474;BME280;3778;42.572;23.426;2022-09-21T04:14:59;73229.03;;;-146.70;73.87
7474;BME280;3778;42.572;23.426;2022-09-21T04:17:26;73229.03;;;-146.70;73.79
7474;BME280;3778;42.572;23.426;2022-09-21T04:19:52;73229.03;;;-146.70;73.72
7474;BME280;3778;42.572;23.426;2022-09-21T04:22:19;73224.88;;;-146.70;73.75
7474;BME280;3778;42.572;23.426;2022-09-21T04:24:48;73226.94;;;-146.70;73.90
7474;BME280;3778;42.572;23.426;2022-09-21T04:27:16;73233.16;;;-146.70;73.85
7474;BME280;3778;42.572;23.426;2022-09-21T04:29:43;73229.03;;;-146.70;74.17
7474;BME280;3778;42.572;23.426;2022-09-21T04:32:10;73224.88;;;-146.70;73.92
7474;BME280;3778;42.572;23.426;2022-09-21T04:34:37;73216.56;;;-146.70;73.64
7474;BME280;3778;42.572;23.426;2022-09-21T04:37:05;73220.72;;;-146.70;73.54
7474;BME280;3778;42.572;23.426;2022-09-21T04:39:32;73220.72;;;-146.70;73.31
7474;BME280;3778;42.572;23.426;2022-09-21T04:41:58;73222.81;;;-146.70;73.44
7474;BME280;3778;42.572;23.426;2022-09-21T04:44:27;73224.88;;;-146.70;73.49
7474;BME280;3778;42.572;23.426;2022-09-21T04:46:54;73222.81;;;-146.70;73.24
7474;BME280;3778;42.572;23.426;2022-09-21T04:49:21;73226.94;;;-146.70;73.47
7474;BME280;3778;42.572;23.426;2022-09-21T04:51:48;73218.66;;;-146.70;73.49
7474;BME280;3778;42.572;23.426;2022-09-21T04:54:15;73214.50;;;-146.70;73.45
7474;BME280;3778;42.572;23.426;2022-09-21T04:56:42;73220.72;;;-146.70;73.25
7474;BME280;3778;42.572;23.426;2022-09-21T04:59:08;73216.56;;;-146.70;73.03
7474;BME280;3778;42.572;23.426;2022-09-21T05:01:37;73237.31;;;-146.70;73.19
7474;BME280;3778;42.572;23.426;2022-09-21T05:04:03;73224.88;;;-146.70;73.33
7474;BME280;3778;42.572;23.426;2022-09-21T05:06:32;73208.28;;;-146.70;73.31
7474;BME280;3778;42.572;23.426;2022-09-21T05:08:59;73212.44;;;-146.70;73.13
7474;BME280;3778;42.572;23.426;2022-09-21T05:11:46;73202.06;;;-146.70;72.92
7474;BME280;3778;42.572;23.426;2022-09-21T05:14:12;73202.06;;;-146.70;72.59
7474;BME280;3778;42.572;23.426;2022-09-21T05:16:41;73183.41;;;-146.70;72.45
7474;BME280;3778;42.572;23.426;2022-09-21T05:19:07;73177.19;;;-146.70;71.90
7474;BME280;3778;42.572;23.426;2022-09-21T05:21:34;73168.91;;;-146.70;71.92
7474;BME280;3778;42.572;23.426;2022-09-21T05:24:01;73162.69;;;-146.70;71.39
7474;BME280;3778;42.572;23.426;2022-09-21T05:26:28;73148.19;;;-146.70;71.13
7474;BME280;3778;42.572;23.426;2022-09-21T05:28:55;73131.59;;;-146.70;70.78
7474;BME280;3778;42.572;23.426;2022-09-21T05:31:30;73121.22;;;-146.70;71.49
7474;BME280;3778;42.572;23.426;2022-09-21T05:34:07;73102.56;;;-146.70;71.05
7474;BME280;3778;42.572;23.426;2022-09-21T05:36:47;73096.34;;;-146.70;70.85
7474;BME280;3778;42.572;23.426;2022-09-21T05:39:15;73086.00;;;-146.70;69.79
7474;BME280;3778;42.572;23.426;2022-09-21T05:41:43;73065.25;;;-146.70;69.55
7474;BME280;3778;42.572;23.426;2022-09-21T05:44:12;73046.59;;;-146.70;69.94
7474;BME280;3778;42.572;23.426;2022-09-21T05:46:40;73032.09;;;-146.70;70.30
7474;BME280;3778;42.572;23.426;2022-09-21T05:49:16;73032.09;;;-146.70;70.31
7474;BME280;3778;42.572;23.426;2022-09-21T05:51:52;73009.28;;;-146.70;70.50
7474;BME280;3778;42.572;23.426;2022-09-21T05:54:26;72990.63;;;-146.70;70.31
7474;BME280;3778;42.572;23.426;2022-09-21T05:57:03;72976.13;;;-146.70;69.44
7474;BME280;3778;42.572;23.426;2022-09-21T05:59:40;72969.91;;;-146.70;68.87
7474;BME280;3778;42.572;23.426;2022-09-21T06:02:19;72982.34;;;-146.70;67.54
7474;BME280;3778;42.572;23.426;2022-09-21T06:04:52;73001.00;;;-146.70;67.89
7474;BME280;3778;42.572;23.426;2022-09-21T06:07:21;72992.72;;;-146.70;67.82
7474;BME280;3778;42.572;23.426;2022-09-21T06:09:48;72982.34;;;-146.70;67.86
7474;BME280;3778;42.572;23.426;2022-09-21T06:12:15;72992.72;;;-146.70;67.13
7474;BME280;3778;42.572;23.426;2022-09-21T06:14:42;72980.28;;;-146.70;67.36
7474;BME280;3778;42.572;23.426;2022-09-21T06:17:08;72980.28;;;-146.70;66.77
7474;BME280;3778;42.572;23.426;2022-09-21T06:19:35;72963.69;;;-146.70;66.51
7474;BME280;3778;42.572;23.426;2022-09-21T06:22:03;72949.19;;;-146.70;66.18
7474;BME280;3778;42.572;23.426;2022-09-21T06:24:30;72940.91;;;-146.70;65.90
7474;BME280;3778;42.572;23.426;2022-09-21T06:26:56;72924.31;;;-146.70;65.88
7474;BME280;3778;42.572;23.426;2022-09-21T06:29:23;72916.03;;;-146.70;64.85
7474;BME280;3778;42.572;23.426;2022-09-21T06:31:50;72901.50;;;-146.70;64.84
7474;BME280;3778;42.572;23.426;2022-09-21T06:34:17;72895.28;;;-146.70;65.02
7474;BME280;3778;42.572;23.426;2022-09-21T06:36:43;72903.59;;;-146.70;64.41
7474;BME280;3778;42.572;23.426;2022-09-21T06:39:12;72884.94;;;-146.70;64.05
7474;BME280;3778;42.572;23.426;2022-09-21T06:41:39;72882.84;;;-146.70;63.63
7474;BME280;3778;42.572;23.426;2022-09-21T06:44:05;72889.06;;;-146.70;63.76
7474;BME280;3778;42.572;23.426;2022-09-21T06:46:32;72868.34;;;-146.70;63.29
7474;BME280;3778;42.572;23.426;2022-09-21T06:48:59;72853.84;;;-146.70;63.44
7474;BME280;3778;42.572;23.426;2022-09-21T06:51:25;72880.78;;;-146.70;63.80
7474;BME280;3778;42.572;23.426;2022-09-21T06:53:54;72874.56;;;-146.70;65.01
7474;BME280;3778;42.572;23.426;2022-09-21T06:56:23;72905.66;;;-146.70;64.79
7474;BME280;3778;42.572;23.426;2022-09-21T06:58:50;72891.16;;;-146.70;64.95
7474;BME280;3778;42.572;23.426;2022-09-21T07:01:17;72868.34;;;-146.70;65.48
7474;BME280;3778;42.572;23.426;2022-09-21T07:03:47;72860.06;;;-146.70;64.93
7474;BME280;3778;42.572;23.426;2022-09-21T07:06:14;72837.25;;;-146.70;64.14
7474;BME280;3778;42.572;23.426;2022-09-21T07:08:42;72814.47;;;-146.70;62.88
7474;BME280;3778;42.572;23.426;2022-09-21T07:11:10;72791.66;;;-146.70;61.93
7474;BME280;3778;42.572;23.426;2022-09-21T07:13:38;72781.28;;;-146.70;62.10
7474;BME280;3778;42.572;23.426;2022-09-21T07:16:07;72764.72;;;-146.70;61.92
7474;BME280;3778;42.572;23.426;2022-09-21T07:18:34;72748.13;;;-146.70;60.88
7474;BME280;3778;42.572;23.426;2022-09-21T07:21:03;72737.78;;;-146.70;61.31
7474;BME280;3778;42.572;23.426;2022-09-21T07:23:30;72723.25;;;-146.70;60.45
7474;BME280;3778;42.572;23.426;2022-09-21T07:26:00;72694.25;;;-146.70;59.17
7474;BME280;3778;42.572;23.426;2022-09-21T07:28:28;72661.09;;;-146.70;59.13
7474;BME280;3778;42.572;23.426;2022-09-21T07:30:57;72646.56;;;-146.70;58.28
7474;BME280;3778;42.572;23.426;2022-09-21T07:33:24;72646.56;;;-146.70;57.14
7474;BME280;3778;42.572;23.426;2022-09-21T07:35:51;72636.22;;;-146.70;57.22
7474;BME280;3778;42.572;23.426;2022-09-21T07:38:18;72625.84;;;-146.70;57.52
7474;BME280;3778;42.572;23.426;2022-09-21T07:40:45;72615.47;;;-146.70;56.85
7474;BME280;3778;42.572;23.426;2022-09-21T07:43:12;72607.19;;;-146.70;56.36
7474;BME280;3778;42.572;23.426;2022-09-21T07:45:39;72611.34;;;-146.70;54.75
7474;BME280;3778;42.572;23.426;2022-09-21T07:48:08;72607.19;;;-146.70;54.98
7474;BME280;3778;42.572;23.426;2022-09-21T07:50:35;72605.13;;;-146.70;55.21
7474;BME280;3778;42.572;23.426;2022-09-21T07:53:03;72623.78;;;-146.70;55.40
7474;BME280;3778;42.572;23.426;2022-09-21T07:55:30;72621.69;;;-146.70;54.72
7474;BME280;3778;42.572;23.426;2022-09-21T07:57:57;72605.13;;;-146.70;54.67
7474;BME280;3778;42.572;23.426;2022-09-21T08:00:40;72611.34;;;-146.70;54.49
7474;BME280;3778;42.572;23.426;2022-09-21T08:03:09;72598.91;;;-146.70;54.39
7474;BME280;3778;42.572;23.426;2022-09-21T08:05:36;72592.69;;;-146.70;54.51
7474;BME280;3778;42.572;23.426;2022-09-21T08:08:03;72600.97;;;-146.70;54.80
7474;BME280;3778;42.572;23.426;2022-09-21T08:10:29;72590.63;;;-146.70;55.22
7474;BME280;3778;42.572;23.426;2022-09-21T08:12:57;72600.97;;;-146.70;56.32
7474;BME280;3778;42.572;23.426;2022-09-21T08:15:23;72584.41;;;-146.70;55.58
7474;BME280;3778;42.572;23.426;2022-09-21T08:17:51;72578.19;;;-146.70;55.04
7474;BME280;3778;42.572;23.426;2022-09-21T08:20:19;72596.84;;;-146.70;55.46
7474;BME280;3778;42.572;23.426;2022-09-21T08:22:47;72594.75;;;-146.70;54.56
7474;BME280;3778;42.572;23.426;2022-09-21T08:25:15;72578.19;;;-146.70;53.90
7474;BME280;3778;42.572;23.426;2022-09-21T08:27:42;72588.53;;;-146.70;53.52
7474;BME280;3778;42.572;23.426;2022-09-21T08:30:09;72578.19;;;-146.70;53.72
7474;BME280;3778;42.572;23.426;2022-09-21T08:32:38;72586.47;;;-146.70;53.24
7474;BME280;3778;42.572;23.426;2022-09-21T08:35:06;72582.31;;;-146.70;53.76
7474;BME280;3778;42.572;23.426;2022-09-21T08:37:35;72559.53;;;-146.70;52.91
7474;BME280;3778;42.572;23.426;2022-09-21T08:40:03;72571.97;;;-146.70;53.19
7474;BME280;3778;42.572;23.426;2022-09-21T08:42:44;72567.81;;;-146.70;53.34
7474;BME280;3778;42.572;23.426;2022-09-21T08:45:18;72555.38;;;-146.70;53.09
7474;BME280;3778;42.572;23.426;2022-09-21T08:47:48;72557.44;;;-146.70;52.76
7474;BME280;3778;42.572;23.426;2022-09-21T08:50:27;72567.81;;;-146.70;52.98
7474;BME280;3778;42.572;23.426;2022-09-21T08:53:01;72540.88;;;-146.70;53.87
7474;BME280;3778;42.572;23.426;2022-09-21T08:55:29;72538.81;;;-146.70;53.31
7474;BME280;3778;42.572;23.426;2022-09-21T08:57:57;72540.88;;;-146.70;53.21
7474;BME280;3778;42.572;23.426;2022-09-21T09:00:24;72536.72;;;-146.70;52.68
7474;BME280;3778;42.572;23.426;2022-09-21T09:03:15;72524.28;;;-146.70;53.22
7474;BME280;3778;42.572;23.426;2022-09-21T09:05:48;72532.59;;;-146.70;52.94
7474;BME280;3778;42.572;23.426;2022-09-21T09:08:35;72538.81;;;-146.70;52.58
7474;BME280;3778;42.572;23.426;2022-09-21T09:11:14;72499.44;;;-146.70;52.49
7474;BME280;3778;42.572;23.426;2022-09-21T09:14:05;72499.44;;;-146.70;50.98
7474;BME280;3778;42.572;23.426;2022-09-21T09:16:43;72505.63;;;-146.70;50.92
7474;BME280;3778;42.572;23.426;2022-09-21T09:19:18;72497.34;;;-146.70;50.57
7474;BME280;3778;42.572;23.426;2022-09-21T09:21:47;72518.06;;;-146.70;51.32
7474;BME280;3778;42.572;23.426;2022-09-21T09:24:29;72487.00;;;-146.70;51.17
7474;BME280;3778;42.572;23.426;2022-09-21T09:27:00;72484.91;;;-146.70;50.38
7474;BME280;3778;42.572;23.426;2022-09-21T09:29:36;72457.97;;;-146.70;50.94
7474;BME280;3778;42.572;23.426;2022-09-21T09:32:12;72435.19;;;-146.70;50.00
7474;BME280;3778;42.572;23.426;2022-09-21T09:34:42;72447.63;;;-146.70;50.08
7474;BME280;3778;42.572;23.426;2022-09-21T09:37:12;72422.75;;;-146.70;51.33
7474;BME280;3778;42.572;23.426;2022-09-21T09:39:42;72424.81;;;-146.70;50.39
7474;BME280;3778;42.572;23.426;2022-09-21T09:42:30;72451.75;;;-146.70;48.42
7474;BME280;3778;42.572;23.426;2022-09-21T09:45:15;72453.81;;;-146.70;49.38
7474;BME280;3778;42.572;23.426;2022-09-21T09:47:52;72435.19;;;-146.70;49.76
7474;BME280;3778;42.572;23.426;2022-09-21T09:50:28;72451.75;;;-146.70;49.71
7474;BME280;3778;42.572;23.426;2022-09-21T09:53:03;72447.63;;;-146.70;49.17
7474;BME280;3778;42.572;23.426;2022-09-21T09:55:36;72451.75;;;-146.70;48.96
7474;BME280;3778;42.572;23.426;2022-09-21T09:58:05;72445.53;;;-146.70;49.65
7474;BME280;3778;42.572;23.426;2022-09-21T10:00:38;72433.09;;;-146.70;49.52
7474;BME280;3778;42.572;23.426;2022-09-21T10:03:14;72418.59;;;-146.70;49.94
7474;BME280;3778;42.572;23.426;2022-09-21T10:05:41;72426.88;;;-146.70;50.58
7474;BME280;3778;42.572;23.426;2022-09-21T10:08:26;72445.53;;;-146.70;50.27
7474;BME280;3778;42.572;23.426;2022-09-21T10:10:55;72435.19;;;-146.70;51.05
7474;BME280;3778;42.572;23.426;2022-09-21T10:13:26;72412.38;;;-146.70;50.73
7474;BME280;3778;42.572;23.426;2022-09-21T10:15:56;72399.94;;;-146.70;49.71
7474;BME280;3778;42.572;23.426;2022-09-21T10:18:26;72410.31;;;-146.70;49.05
7474;BME280;3778;42.572;23.426;2022-09-21T10:21:00;72414.44;;;-146.70;48.36
7474;BME280;3778;42.572;23.426;2022-09-21T10:23:29;72420.66;;;-146.70;48.21
7474;BME280;3778;42.572;23.426;2022-09-21T10:26:01;72410.31;;;-146.70;47.64
7474;BME280;3778;42.572;23.426;2022-09-21T10:28:29;72391.66;;;-146.70;48.27
7474;BME280;3778;42.572;23.426;2022-09-21T10:31:08;72406.16;;;-146.70;48.34
7474;BME280;3778;42.572;23.426;2022-09-21T10:33:45;72377.16;;;-146.70;48.75
7474;BME280;3778;42.572;23.426;2022-09-21T10:36:25;72360.56;;;-146.70;48.03
7474;BME280;3778;42.572;23.426;2022-09-21T10:38:51;72321.19;;;-146.70;49.92
7474;BME280;3778;42.572;23.426;2022-09-21T10:41:20;72306.69;;;-146.70;47.53
7474;BME280;3778;42.572;23.426;2022-09-21T10:43:47;72333.63;;;-146.70;47.12
7474;BME280;3778;42.572;23.426;2022-09-21T10:46:16;72335.69;;;-146.70;46.64
7474;BME280;3778;42.572;23.426;2022-09-21T10:48:44;72331.56;;;-146.70;47.74
7474;BME280;3778;42.572;23.426;2022-09-21T10:51:25;72333.63;;;-146.70;47.56
7474;BME280;3778;42.572;23.426;2022-09-21T10:53:53;72348.13;;;-146.70;47.17
7474;BME280;3778;42.572;23.426;2022-09-21T10:56:22;72346.06;;;-146.70;47.32
7474;BME280;3778;42.572;23.426;2022-09-21T10:59:12;72350.19;;;-146.70;47.42
7474;BME280;3778;42.572;23.426;2022-09-21T11:01:47;72310.81;;;-146.70;46.98
7474;BME280;3778;42.572;23.426;2022-09-21T11:04:18;72306.69;;;-146.70;46.77
7474;BME280;3778;42.572;23.426;2022-09-21T11:06:51;72292.19;;;-146.70;46.88
7474;BME280;3778;42.572;23.426;2022-09-21T11:09:25;72292.19;;;-146.70;45.36
7474;BME280;3778;42.572;23.426;2022-09-21T11:11:59;72271.44;;;-146.70;44.99
7474;BME280;3778;42.572;23.426;2022-09-21T11:14:42;72244.50;;;-146.70;43.83
7474;BME280;3778;42.572;23.426;2022-09-21T11:17:16;72219.63;;;-146.70;44.50
7474;BME280;3778;42.572;23.426;2022-09-21T11:19:49;72238.28;;;-146.70;43.27
7474;BME280;3778;42.572;23.426;2022-09-21T11:22:23;72213.44;;;-146.70;43.02
7474;BME280;3778;42.572;23.426;2022-09-21T11:25:00;72180.28;;;-146.70;42.69
7474;BME280;3778;42.572;23.426;2022-09-21T11:27:36;72205.13;;;-146.70;42.13
7474;BME280;3778;42.572;23.426;2022-09-21T11:30:08;72176.13;;;-146.70;43.27
7474;BME280;3778;42.572;23.426;2022-09-21T11:32:54;72209.28;;;-146.70;43.24
7474;BME280;3778;42.572;23.426;2022-09-21T11:35:37;72182.34;;;-146.70;42.42
7474;BME280;3778;42.572;23.426;2022-09-21T11:38:11;72217.56;;;-146.70;42.96
7474;BME280;3778;42.572;23.426;2022-09-21T11:40:54;72194.78;;;-146.70;43.01
7474;BME280;3778;42.572;23.426;2022-09-21T11:43:41;72169.91;;;-146.70;42.60
7474;BME280;3778;42.572;23.426;2022-09-21T11:46:17;72153.31;;;-146.70;41.16
7474;BME280;3778;42.572;23.426;2022-09-21T11:48:57;72149.19;;;-146.70;41.62
7474;BME280;3778;42.572;23.426;2022-09-21T11:51:37;72118.09;;;-146.70;41.21
7474;BME280;3778;42.572;23.426;2022-09-21T11:54:29;72176.13;;;-146.70;40.89
7474;BME280;3778;42.572;23.426;2022-09-21T11:57:03;72178.19;;;-146.70;41.27
7474;BME280;3778;42.572;23.426;2022-09-21T12:02:48;72207.22;;;-146.70;41.18
7474;BME280;3778;42.572;23.426;2022-09-21T12:05:21;72217.56;;;-146.70;41.66
7474;BME280;3778;42.572;23.426;2022-09-21T12:08:09;72213.44;;;-146.70;42.16
7474;BME280;3778;42.572;23.426;2022-09-21T12:10:45;72194.78;;;-146.70;41.50
7474;BME280;3778;42.572;23.426;2022-09-21T12:13:22;72209.28;;;-146.70;43.79
7474;BME280;3778;42.572;23.426;2022-09-21T12:15:58;72267.31;;;-146.70;45.69
7474;BME280;3778;42.572;23.426;2022-09-21T12:18:34;72312.91;;;-146.70;46.71
7474;BME280;3778;42.572;23.426;2022-09-21T12:21:11;72366.78;;;-146.70;46.40
7474;BME280;3778;42.572;23.426;2022-09-21T12:23:42;72391.66;;;-146.70;46.95
7474;BME280;3778;42.572;23.426;2022-09-21T12:26:13;72408.22;;;-146.70;46.95
7474;BME280;3778;42.572;23.426;2022-09-21T12:28:45;72383.38;;;-146.70;47.58
7474;BME280;3778;42.572;23.426;2022-09-21T12:31:18;72366.78;;;-146.70;46.96
7474;BME280;3778;42.572;23.426;2022-09-21T12:33:50;72375.06;;;-146.70;46.92
7474;BME280;3778;42.572;23.426;2022-09-21T12:36:20;72366.78;;;-146.70;48.04
7474;BME280;3778;42.572;23.426;2022-09-21T12:38:54;72337.78;;;-146.70;48.24
7474;BME280;3778;42.572;23.426;2022-09-21T12:41:30;72296.31;;;-146.70;47.83
7474;BME280;3778;42.572;23.426;2022-09-21T12:44:03;72290.09;;;-146.70;47.14
7474;BME280;3778;42.572;23.426;2022-09-21T12:46:33;72269.38;;;-146.70;47.09
7474;BME280;3778;42.572;23.426;2022-09-21T12:49:10;72279.75;;;-146.70;46.53
7474;BME280;3778;42.572;23.426;2022-09-21T12:51:41;72319.13;;;-146.70;47.09
7474;BME280;3778;42.572;23.426;2022-09-21T12:54:18;72317.03;;;-146.70;46.91
7474;BME280;3778;42.572;23.426;2022-09-21T12:56:50;72263.16;;;-146.70;47.02
7474;BME280;3778;42.572;23.426;2022-09-21T12:59:29;72254.88;;;-146.70;46.11
7474;BME280;3778;42.572;23.426;2022-09-21T13:02:12;72306.69;;;-146.70;46.70
7474;BME280;3778;42.572;23.426;2022-09-21T13:04:49;72310.81;;;-146.70;46.53
7474;BME280;3778;42.572;23.426;2022-09-21T13:07:39;72271.44;;;-146.70;46.33
7474;BME280;3778;42.572;23.426;2022-09-21T13:10:14;72283.88;;;-146.70;46.46
7474;BME280;3778;42.572;23.426;2022-09-21T13:12:45;72304.59;;;-146.70;46.61
7474;BME280;3778;42.572;23.426;2022-09-21T13:15:18;72366.78;;;-146.70;47.68